»·PEaware :: UAL1125 KLAS-KDEN

UAL1125 :: KLAS-KDEN

FLIGHT INFORMATION

Flight Status: Arrived
Operator:
United Airlines
More flights by this operator :: More flights under this callsign
Pilot: Chandler S. (807)
Aircraft: Unknown
(B39M)
More flights by this aircraft type
Origin: KLAS McCarran Intl
United States
Destination: KDEN Denver Intl
United States
More flights between these airports :: More routes between these airports
Route: GIDGT1 TUKRR BUMMP SSKII2
File this flight plan on PilotEdge
Remarks:
Altitude:
(Current/Filed)
37,000ft
Speed:
(Current/Filed)
400kts
Departed: 12-Mar-21 03:38 PM
Arrived: 12-Mar-21 05:01 PM
Distance/Time
Traveled:
544nm/1:23
Distance/Time
To Go:
Arrived

Flight Plot

Page will automatically refresh every two minutes.

Flight plan parsing failed; only flown route is shown


Map Options




Map Legend


Flown Route
Filed Route
Departure Airport
Arrival Airport
Navaid (VOR, NDB)
Fix

Horizontal Profiles

Position Reports

Time Latitude Longitude Heading Altitude Ground
Speed
12-Mar-21 15:18 36.083464 -115.138752 224 2188ft 0kts
12-Mar-21 15:19 36.083464 -115.138752 224 2188ft 0kts
12-Mar-21 15:20 36.083464 -115.138752 224 2188ft 0kts
12-Mar-21 15:21 36.083464 -115.138752 224 2188ft 0kts
12-Mar-21 15:22 36.083464 -115.138752 224 2188ft 0kts
12-Mar-21 15:23 36.083464 -115.138752 224 2188ft 0kts
12-Mar-21 15:24 36.083464 -115.138752 224 2188ft 0kts
12-Mar-21 15:25 36.083464 -115.138752 224 2188ft 0kts
12-Mar-21 15:26 36.083473 -115.138741 224 2188ft 1kts
12-Mar-21 15:27 36.083952 -115.138543 153 2189ft 2kts
12-Mar-21 15:28 36.084164 -115.139013 89 2188ft 0kts
12-Mar-21 15:29 36.084164 -115.139013 88 2188ft 0kts
12-Mar-21 15:30 36.084168 -115.138665 89 2188ft 9kts
12-Mar-21 15:31 36.082791 -115.133272 138 2188ft 25kts
12-Mar-21 15:32 36.078975 -115.132903 180 2188ft 0kts
12-Mar-21 15:33 36.078975 -115.132903 180 2188ft 0kts
12-Mar-21 15:34 36.078280 -115.130317 90 2188ft 25kts
12-Mar-21 15:35 36.077884 -115.121996 129 2188ft 1kts
12-Mar-21 15:36 36.076479 -115.121661 267 2188ft 11kts
12-Mar-21 15:37 36.076709 -115.176701 268 4267ft 226kts
12-Mar-21 15:38 36.081255 -115.256233 295 6632ft 237kts
12-Mar-21 15:39 36.134948 -115.298645 354 8991ft 243kts
12-Mar-21 15:40 36.182460 -115.237951 67 11533ft 295kts
12-Mar-21 15:41 36.203799 -115.137257 94 14726ft 320kts
12-Mar-21 15:42 36.197044 -115.024354 92 17562ft 340kts
12-Mar-21 15:43 36.196518 -114.904917 94 20194ft 354kts
12-Mar-21 15:44 36.196165 -114.780840 94 22800ft 370kts
12-Mar-21 15:45 36.195785 -114.654169 95 25482ft 374kts
12-Mar-21 15:46 36.195390 -114.528648 95 27656ft 381kts
12-Mar-21 15:47 36.194850 -114.397363 96 29846ft 387kts
12-Mar-21 15:48 36.194218 -114.263503 97 32221ft 387kts
12-Mar-21 15:49 36.207103 -114.127073 87 34002ft 407kts
12-Mar-21 15:50 36.223396 -113.991022 87 35587ft 418kts
12-Mar-21 15:51 36.240358 -113.847419 87 37047ft 430kts
12-Mar-21 15:52 36.258357 -113.691870 86 37132ft 483kts
12-Mar-21 15:53 36.277600 -113.524634 86 37126ft 510kts
12-Mar-21 15:54 36.297466 -113.350369 86 37118ft 510kts
12-Mar-21 15:55 36.326728 -113.176279 71 37113ft 521kts
12-Mar-21 15:56 36.384994 -113.018513 70 37104ft 520kts
12-Mar-21 15:57 36.443771 -112.850298 71 37108ft 544kts
12-Mar-21 15:58 36.504296 -112.676214 71 37123ft 551kts
12-Mar-21 16:00 36.564618 -112.501696 71 37133ft 549kts
12-Mar-21 16:01 36.624743 -112.326715 71 37123ft 548kts
12-Mar-21 16:02 36.684688 -112.151892 71 37133ft 550kts
12-Mar-21 16:03 36.742471 -111.982178 71 37118ft 551kts
12-Mar-21 16:04 36.801860 -111.806683 71 37088ft 548kts
12-Mar-21 16:05 36.862723 -111.631726 64 37096ft 554kts
12-Mar-21 16:06 36.941174 -111.471310 62 37101ft 556kts
12-Mar-21 16:07 37.019120 -111.306712 63 37083ft 542kts
12-Mar-21 16:08 37.094720 -111.146673 63 37089ft 528kts
12-Mar-21 16:09 37.168036 -110.990531 63 37077ft 541kts
12-Mar-21 16:10 37.245271 -110.825076 64 37079ft 557kts
12-Mar-21 16:11 37.323007 -110.657900 64 37084ft 554kts
12-Mar-21 16:12 37.399055 -110.493443 64 37102ft 556kts
12-Mar-21 16:13 37.477080 -110.323845 64 37099ft 556kts
12-Mar-21 16:14 37.554223 -110.155712 64 37110ft 555kts
12-Mar-21 16:15 37.630918 -109.987478 65 37111ft 555kts
12-Mar-21 16:16 37.707444 -109.818621 64 37115ft 555kts
12-Mar-21 16:17 37.783636 -109.649473 65 37108ft 556kts
12-Mar-21 16:18 37.859064 -109.481082 65 37112ft 556kts
12-Mar-21 16:19 37.934672 -109.311515 65 37103ft 553kts
12-Mar-21 16:19 37.997668 -109.169884 65 37107ft 557kts
12-Mar-21 16:21 38.084771 -108.972717 64 37112ft 574kts
12-Mar-21 16:22 38.157853 -108.792524 67 37038ft 573kts
12-Mar-21 16:22 38.216608 -108.642313 68 37008ft 572kts
12-Mar-21 16:23 38.286680 -108.462002 68 37042ft 573kts
12-Mar-21 16:24 38.357154 -108.279697 68 37004ft 571kts
12-Mar-21 16:26 38.438802 -108.067748 68 37003ft 572kts
12-Mar-21 16:26 38.496548 -107.916035 68 37009ft 571kts
12-Mar-21 16:27 38.565431 -107.732976 69 37016ft 573kts
12-Mar-21 16:28 38.633773 -107.550193 68 37018ft 572kts
12-Mar-21 16:29 38.702618 -107.367009 68 37037ft 572kts
12-Mar-21 16:30 38.771893 -107.183663 69 37040ft 573kts
12-Mar-21 16:31 38.840725 -107.000210 69 36760ft 575kts
12-Mar-21 16:32 38.909164 -106.816459 69 34819ft 576kts
12-Mar-21 16:33 38.976310 -106.635177 69 32926ft 546kts
12-Mar-21 16:34 39.038968 -106.464583 69 31117ft 516kts
12-Mar-21 16:35 39.098287 -106.301761 70 29200ft 492kts
12-Mar-21 16:36 39.154770 -106.146271 70 27252ft 469kts
12-Mar-21 16:37 39.208718 -105.997110 70 25496ft 450kts
12-Mar-21 16:38 39.258289 -105.859319 70 23839ft 432kts
12-Mar-21 16:40 39.315845 -105.698412 70 22150ft 416kts
12-Mar-21 16:40 39.355516 -105.589034 70 21017ft 385kts
12-Mar-21 16:41 39.398411 -105.471497 70 19717ft 352kts
12-Mar-21 16:42 39.447692 -105.362446 58 18582ft 349kts
12-Mar-21 16:43 39.504344 -105.258794 59 17547ft 339kts
12-Mar-21 16:44 39.556795 -105.162066 59 17008ft 335kts
12-Mar-21 16:45 39.610975 -105.061607 59 16351ft 332kts
12-Mar-21 16:46 39.662642 -104.965673 59 14829ft 314kts
12-Mar-21 16:47 39.711242 -104.878372 48 13392ft 311kts
12-Mar-21 16:48 39.790150 -104.841763 3 12387ft 306kts
12-Mar-21 16:49 39.871034 -104.840447 2 11442ft 271kts
12-Mar-21 16:50 39.942220 -104.839801 0 10342ft 259kts
12-Mar-21 16:51 40.013430 -104.837215 0 9153ft 252kts
12-Mar-21 16:52 40.081394 -104.832781 1 8848ft 242kts
12-Mar-21 16:53 40.117853 -104.776339 87 8286ft 238kts
12-Mar-21 16:54 40.121347 -104.694652 114 7947ft 206kts
12-Mar-21 16:55 40.072397 -104.684122 195 7982ft 195kts
12-Mar-21 16:56 40.020567 -104.685568 179 7824ft 194kts
12-Mar-21 16:57 39.969990 -104.685111 175 6893ft 182kts
12-Mar-21 16:58 39.929626 -104.686347 178 6022ft 133kts
12-Mar-21 16:59 39.894562 -104.686844 178 5447ft 121kts
12-Mar-21 17:00 39.877316 -104.686329 158 5441ft 30kts
12-Mar-21 17:01 39.874176 -104.684945 180 5441ft 25kts
12-Mar-21 17:02 39.866846 -104.684986 179 5442ft 21kts
12-Mar-21 17:03 39.861744 -104.683928 179 5441ft 25kts
12-Mar-21 17:04 39.860180 -104.678360 181 5441ft 10kts
12-Mar-21 17:05 39.859373 -104.678370 180 5441ft 0kts
12-Mar-21 17:06 39.859373 -104.678370 180 5441ft 0kts

Navigation Log

Ident Type
Flight plan parsing failed, navigation log unavailable